Time;durP1;ratioP1;P1;durP2;ratioP2;P2;SDS_P1;SDS_P2;PMS_P1;PMS_P2;Temp;Humidity;BMP_temperature;BMP_pressure;BME280_temperature;BME280_humidity;BME280_pressure;Samples;Min_cycle;Max_cycle;Signal;HPM_P1;HPM_P2
2021/10/11 00:02:59;;;;;;;24.12;21.55;;;20.80;53.30;;;;;;4766195;55;21089;-22
2021/10/11 00:08:03;;;;;;;25.88;22.30;;;20.80;53.30;;;;;;4749424;55;21468;-25
2021/10/11 00:13:03;;;;;;;24.77;21.65;;;20.80;53.30;;;;;;4737774;59;21562;-24
2021/10/11 00:18:07;;;;;;;23.48;20.92;;;20.80;53.30;;;;;;4765457;55;21025;-26
2021/10/11 00:23:10;;;;;;;23.92;21.35;;;20.80;53.30;;;;;;4739421;59;21573;-24
2021/10/11 00:28:11;;;;;;;25.45;21.67;;;20.80;53.30;;;;;;4769084;55;21551;-24
2021/10/11 00:33:12;;;;;;;24.27;21.02;;;20.80;53.30;;;;;;4738195;59;21157;-25
2021/10/11 00:38:13;;;;;;;23.23;20.45;;;20.80;53.90;;;;;;4753850;55;21959;-26
2021/10/11 00:43:14;;;;;;;24.02;21.05;;;20.80;53.40;;;;;;4770608;55;21087;-23
2021/10/11 00:48:15;;;;;;;21.95;19.55;;;20.80;53.30;;;;;;4765590;55;21042;-25
2021/10/11 00:53:16;;;;;;;22.95;20.45;;;20.80;53.40;;;;;;4738545;55;21006;-20
2021/10/11 00:58:18;;;;;;;23.08;20.30;;;20.80;53.30;;;;;;4769111;55;21085;-24
2021/10/11 01:03:19;;;;;;;21.70;19.40;;;20.80;53.30;;;;;;4739504;55;21563;-25
2021/10/11 01:08:20;;;;;;;21.52;19.23;;;20.80;53.30;;;;;;4749679;55;21073;-25
2021/10/11 01:13:21;;;;;;;21.42;19.12;;;20.80;53.30;;;;;;4770067;55;21472;-24
2021/10/11 01:18:22;;;;;;;21.20;18.58;;;20.80;53.30;;;;;;4757922;55;21056;-21
2021/10/11 01:23:25;;;;;;;21.20;18.60;;;20.80;53.30;;;;;;4746007;55;21514;-23
2021/10/11 01:28:28;;;;;;;20.88;18.65;;;20.80;53.30;;;;;;4742025;55;21492;-21
2021/10/11 01:33:29;;;;;;;22.27;19.33;;;20.80;53.30;;;;;;4773545;55;21551;-23
2021/10/11 01:38:29;;;;;;;21.80;19.00;;;20.80;53.30;;;;;;4763089;55;21069;-20
2021/10/11 01:43:30;;;;;;;20.95;18.58;;;20.80;53.30;;;;;;4766897;55;21002;-25
2021/10/11 01:48:31;;;;;;;20.88;18.70;;;20.80;53.30;;;;;;4745408;55;21041;-22
2021/10/11 01:53:32;;;;;;;20.25;17.75;;;20.80;53.30;;;;;;4751191;55;21025;-23
2021/10/11 01:58:33;;;;;;;20.02;17.42;;;20.80;53.30;;;;;;4736499;55;21081;-26
2021/10/11 02:03:34;;;;;;;18.60;16.65;;;20.80;53.30;;;;;;4742499;55;21539;-23
2021/10/11 02:08:35;;;;;;;20.17;17.52;;;20.80;53.90;;;;;;4742681;55;21093;-24
2021/10/11 02:13:35;;;;;;;18.58;16.60;;;20.80;53.30;;;;;;4743268;55;21547;-26
2021/10/11 02:18:36;;;;;;;20.27;18.05;;;20.80;53.30;;;;;;4742812;55;21014;-27
2021/10/11 02:23:37;;;;;;;19.77;16.83;;;20.80;53.30;;;;;;4737944;59;21551;-22
2021/10/11 02:28:38;;;;;;;18.12;16.17;;;20.80;53.30;;;;;;4741431;55;21005;-25
2021/10/11 02:33:39;;;;;;;20.12;17.17;;;20.80;53.20;;;;;;4771714;55;21567;-25
2021/10/11 02:38:40;;;;;;;18.77;16.27;;;20.80;53.30;;;;;;4748809;55;21025;-24
2021/10/11 02:43:40;;;;;;;18.58;16.60;;;20.80;53.30;;;;;;4736456;59;21037;-24
2021/10/11 02:48:41;;;;;;;18.08;16.12;;;20.80;53.30;;;;;;4755566;55;21085;-26
2021/10/11 02:53:42;;;;;;;17.92;16.02;;;20.80;53.30;;;;;;4752907;55;21026;-23
2021/10/11 02:58:43;;;;;;;17.70;15.80;;;20.80;53.30;;;;;;4744334;55;21069;-21
2021/10/11 03:03:44;;;;;;;17.83;16.00;;;20.80;53.30;;;;;;4760747;55;21105;-21
2021/10/11 03:08:45;;;;;;;16.45;14.73;;;20.80;53.30;;;;;;4749663;55;21480;-26
2021/10/11 03:13:45;;;;;;;17.65;15.82;;;20.80;53.30;;;;;;4749758;55;21018;-22
2021/10/11 03:18:47;;;;;;;17.62;15.82;;;20.80;53.60;;;;;;4737830;59;22221;-23
2021/10/11 03:23:49;;;;;;;16.85;15.05;;;20.80;53.30;;;;;;4751465;55;21480;-25
2021/10/11 03:28:50;;;;;;;15.82;14.20;;;20.80;53.20;;;;;;4754624;55;21001;-24
2021/10/11 03:33:51;;;;;;;16.35;14.63;;;20.80;53.20;;;;;;4748612;55;21042;-25
2021/10/11 03:38:52;;;;;;;16.30;14.60;;;20.80;53.20;;;;;;4737592;59;21512;-24
2021/10/11 03:43:53;;;;;;;17.20;15.40;;;20.80;53.20;;;;;;4749751;55;21027;-23
2021/10/11 03:48:53;;;;;;;17.25;14.70;;;20.80;53.30;;;;;;4744006;55;21576;-27
2021/10/11 03:53:54;;;;;;;16.23;14.43;;;20.80;53.30;;;;;;4738895;55;20998;-27
2021/10/11 03:58:55;;;;;;;17.27;14.10;;;20.80;53.30;;;;;;4745420;55;21002;-23
2021/10/11 04:03:56;;;;;;;16.58;14.55;;;20.80;53.30;;;;;;4738347;59;21053;-25
2021/10/11 04:08:59;;;;;;;15.65;14.00;;;20.80;53.30;;;;;;4782581;55;21512;-23
2021/10/11 04:14:00;;;;;;;15.23;13.62;;;20.80;53.30;;;;;;4749799;55;21487;-23
2021/10/11 04:19:01;;;;;;;15.07;13.48;;;20.80;53.30;;;;;;4760779;55;21021;-27
2021/10/11 04:24:02;;;;;;;14.43;12.93;;;20.80;53.30;;;;;;4739308;55;21037;-25
2021/10/11 04:29:03;;;;;;;14.75;13.25;;;20.80;53.30;;;;;;4749046;55;21034;-26
2021/10/11 04:34:04;;;;;;;15.07;13.48;;;20.80;53.40;;;;;;4750598;55;21539;-24
2021/10/11 04:39:05;;;;;;;15.43;13.23;;;20.80;53.40;;;;;;4777412;55;21018;-27
2021/10/11 04:44:06;;;;;;;14.98;13.35;;;20.80;53.50;;;;;;4769951;55;21503;-23
2021/10/11 04:49:06;;;;;;;15.32;13.35;;;20.80;53.50;;;;;;4737770;55;21018;-26
2021/10/11 04:54:09;;;;;;;14.57;13.07;;;20.80;53.50;;;;;;4738839;59;21030;-26
2021/10/11 04:59:09;;;;;;;13.82;12.43;;;20.80;53.60;;;;;;4747835;55;21488;-27
2021/10/11 05:04:10;;;;;;;14.35;12.85;;;20.70;53.50;;;;;;4749081;55;20998;-25
2021/10/11 05:09:11;;;;;;;14.35;12.85;;;20.70;53.50;;;;;;4749804;55;21539;-23
2021/10/11 05:14:12;;;;;;;13.93;12.40;;;20.70;53.50;;;;;;4766392;55;21046;-26
2021/10/11 05:19:14;;;;;;;14.63;13.13;;;20.70;53.40;;;;;;4750297;55;21532;-25
2021/10/11 05:24:16;;;;;;;13.80;12.40;;;20.80;53.50;;;;;;4750771;55;21578;-21
2021/10/11 05:29:17;;;;;;;14.82;12.73;;;20.80;53.50;;;;;;4746971;55;21015;-23
2021/10/11 05:34:19;;;;;;;13.90;12.40;;;20.80;53.50;;;;;;4754183;55;21013;-22
2021/10/11 05:39:20;;;;;;;15.57;12.73;;;20.70;53.50;;;;;;4736806;57;21006;-25
2021/10/11 05:44:21;;;;;;;15.55;13.25;;;20.70;53.50;;;;;;4747055;55;21527;-23
2021/10/11 05:49:22;;;;;;;14.60;13.02;;;20.70;53.50;;;;;;4770680;55;21086;-22
2021/10/11 05:54:23;;;;;;;13.70;12.30;;;20.80;53.50;;;;;;4759067;55;21496;-22
2021/10/11 05:59:24;;;;;;;14.07;12.68;;;20.70;53.40;;;;;;4790769;55;21061;-26
2021/10/11 06:04:25;;;;;;;14.77;13.18;;;20.70;53.40;;;;;;4772595;55;21538;-27
2021/10/11 06:09:26;;;;;;;14.60;13.10;;;20.80;53.50;;;;;;4799326;55;21546;-23
2021/10/11 06:14:27;;;;;;;15.38;13.15;;;20.70;53.40;;;;;;4740231;55;21014;-26
2021/10/11 06:19:28;;;;;;;14.20;12.68;;;20.70;53.50;;;;;;4753242;55;21524;-27
2021/10/11 06:24:29;;;;;;;14.90;13.15;;;20.80;53.40;;;;;;4767514;55;21002;-25
2021/10/11 06:29:30;;;;;;;15.35;13.48;;;20.70;53.40;;;;;;4737820;56;21551;-26
2021/10/11 06:34:31;;;;;;;14.27;12.77;;;20.70;53.40;;;;;;4757160;55;21065;-25
2021/10/11 06:39:32;;;;;;;14.68;13.18;;;20.70;53.40;;;;;;4747650;55;21507;-23
2021/10/11 06:44:33;;;;;;;15.25;13.70;;;20.70;53.40;;;;;;4747597;55;21053;-25
2021/10/11 06:49:34;;;;;;;17.35;15.20;;;20.70;53.40;;;;;;4749473;55;21106;-25
2021/10/11 06:54:35;;;;;;;15.95;13.98;;;20.70;53.40;;;;;;4773149;55;21017;-22
2021/10/11 06:59:36;;;;;;;16.92;14.77;;;20.70;53.40;;;;;;4747261;55;21109;-22
2021/10/11 07:04:37;;;;;;;16.15;14.45;;;20.70;53.40;;;;;;4753361;55;21599;-25
2021/10/11 07:09:38;;;;;;;21.15;15.25;;;20.70;53.40;;;;;;4741538;55;21061;-25
2021/10/11 07:14:39;;;;;;;19.48;16.83;;;20.70;53.60;;;;;;4736463;55;21042;-26
2021/10/11 07:19:45;;;;;;;29.27;21.98;;;20.80;53.90;;;;;;4756922;55;21030;-22
2021/10/11 07:24:47;;;;;;;29.30;23.03;;;20.80;53.70;;;;;;4748509;55;21519;-24
2021/10/11 07:29:49;;;;;;;31.92;25.08;;;20.90;53.50;;;;;;4755234;55;21529;-26
2021/10/11 07:34:49;;;;;;;31.70;25.48;;;20.90;53.20;;;;;;4740356;55;21481;-26
2021/10/11 07:39:50;;;;;;;36.55;27.83;;;20.90;52.90;;;;;;4758384;55;21378;-26
2021/10/11 07:44:51;;;;;;;37.90;27.98;;;21.00;52.70;;;;;;4747389;55;21921;-27
2021/10/11 07:49:52;;;;;;;50.97;38.58;;;21.00;52.50;;;;;;4736321;55;21109;-24
2021/10/11 07:54:53;;;;;;;59.45;42.35;;;21.00;50.30;;;;;;4744948;55;21471;-26
2021/10/11 07:59:54;;;;;;;55.95;42.08;;;20.90;49.80;;;;;;4759528;55;21017;-25
2021/10/11 08:04:54;;;;;;;54.72;41.90;;;20.80;49.60;;;;;;4748981;55;21062;-24
2021/10/11 08:09:55;;;;;;;55.63;43.28;;;20.80;49.60;;;;;;4756217;55;21440;-25
2021/10/11 08:14:56;;;;;;;58.95;45.30;;;20.70;49.50;;;;;;4742423;55;21053;-27
2021/10/11 08:19:57;;;;;;;61.17;42.17;;;20.70;49.60;;;;;;4743642;55;20993;-27
2021/10/11 08:24:58;;;;;;;51.70;40.05;;;20.80;50.50;;;;;;4743749;55;21082;-26
2021/10/11 08:29:59;;;;;;;49.08;38.67;;;20.80;50.80;;;;;;4757920;55;21086;-25
2021/10/11 08:35:00;;;;;;;51.90;37.75;;;20.90;51.70;;;;;;4744289;55;21513;-27
2021/10/11 08:40:02;;;;;;;48.67;38.38;;;21.00;51.50;;;;;;4762708;55;21018;-25
2021/10/11 08:45:05;;;;;;;48.35;38.38;;;21.00;51.70;;;;;;4741668;55;21109;-27
2021/10/11 08:50:11;;;;;;;48.58;38.15;;;21.10;52.10;;;;;;4735620;59;21026;-30
2021/10/11 08:55:12;;;;;;;47.70;38.15;;;21.10;52.30;;;;;;4753881;55;21479;-28
2021/10/11 09:00:19;;;;;;;51.63;38.28;;;21.20;52.60;;;;;;4749544;55;21030;-26
2021/10/11 09:05:32;;;;;;;46.78;37.83;;;21.20;52.90;;;;;;4739610;55;21488;-26
2021/10/11 09:10:51;;;;;;;50.35;38.67;;;21.20;53.10;;;;;;4754640;54;22240;-25
2021/10/11 09:16:40;;;;;;;51.40;39.88;;;21.30;53.40;;;;;;4737420;55;21038;-27
2021/10/11 09:21:42;;;;;;;53.30;39.22;;;21.30;53.50;;;;;;4737019;55;21516;-25
2021/10/11 09:26:54;;;;;;;60.55;44.83;;;21.30;54.40;;;;;;4736632;55;21038;-26
2021/10/11 09:31:59;;;;;;;58.67;46.05;;;21.30;53.80;;;;;;4753209;55;21072;-28
2021/10/11 09:37:03;;;;;;;73.82;53.97;;;21.30;53.90;;;;;;4748144;55;21670;-26
2021/10/11 09:42:07;;;;;;;90.75;69.53;;;21.30;54.20;;;;;;4762760;55;21010;-21
2021/10/11 09:47:08;;;;;;;104.40;77.90;;;21.30;54.10;;;;;;4740856;55;21085;-27
2021/10/11 09:52:10;;;;;;;118.50;86.18;;;21.40;54.10;;;;;;4758258;55;21568;-22
2021/10/11 09:57:12;;;;;;;119.90;88.53;;;21.50;53.80;;;;;;4752303;55;21025;-26
2021/10/11 10:02:17;;;;;;;123.47;93.32;;;21.60;53.50;;;;;;4766770;55;21045;-24
2021/10/11 10:07:17;;;;;;;127.30;97.25;;;21.70;53.30;;;;;;4756027;55;21655;-23
2021/10/11 10:12:19;;;;;;;130.57;100.15;;;21.80;52.90;;;;;;4735371;59;21097;-23
2021/10/11 10:17:31;;;;;;;133.55;103.12;;;21.90;52.80;;;;;;4735113;55;21074;-26
2021/10/11 10:22:32;;;;;;;131.05;102.45;;;22.00;52.60;;;;;;4779052;55;21564;-28
2021/10/11 10:27:36;;;;;;;130.07;102.85;;;22.00;52.50;;;;;;4742043;55;21070;-28
2021/10/11 10:32:37;;;;;;;135.63;107.07;;;22.00;52.40;;;;;;4768944;55;21092;-25
2021/10/11 10:37:38;;;;;;;136.68;105.85;;;22.10;52.40;;;;;;4735545;59;22142;-24
2021/10/11 10:42:40;;;;;;;142.70;109.68;;;22.10;52.30;;;;;;4749091;55;21119;-21
2021/10/11 10:47:41;;;;;;;150.55;112.57;;;22.10;52.30;;;;;;4743978;55;21157;-23
2021/10/11 10:52:47;;;;;;;145.82;113.45;;;22.10;52.30;;;;;;4735605;59;21556;-27
2021/10/11 10:57:48;;;;;;;153.73;116.90;;;22.20;52.30;;;;;;4743930;55;21046;-26
2021/10/11 11:02:52;;;;;;;153.25;116.85;;;22.20;52.30;;;;;;4735245;59;21442;-25
2021/10/11 11:07:58;;;;;;;153.68;117.18;;;22.20;52.30;;;;;;4768531;55;21018;-27
2021/10/11 11:13:18;;;;;;;156.02;120.22;;;22.20;52.70;;;;;;4785540;55;21117;-26
2021/10/11 11:18:25;;;;;;;154.00;120.53;;;22.30;52.30;;;;;;4749181;55;21077;-27
2021/10/11 11:23:36;;;;;;;157.50;120.65;;;22.30;52.20;;;;;;4736578;59;21136;-27
2021/10/11 11:28:37;;;;;;;152.87;118.95;;;22.20;52.10;;;;;;4776374;55;21610;-24
2021/10/11 11:33:49;;;;;;;143.90;113.75;;;22.20;52.10;;;;;;4751815;55;21018;-21
2021/10/11 11:38:49;;;;;;;145.93;115.35;;;22.20;52.20;;;;;;4738071;55;21512;-26
2021/10/11 11:43:50;;;;;;;145.95;112.75;;;22.20;52.20;;;;;;4739084;55;21054;-26
2021/10/11 11:48:51;;;;;;;143.85;114.35;;;22.20;52.20;;;;;;4735602;55;21213;-27
2021/10/11 11:53:54;;;;;;;141.80;109.60;;;22.20;52.20;;;;;;4737421;59;21548;-28
2021/10/11 11:58:56;;;;;;;138.32;108.72;;;22.20;52.10;;;;;;4737755;55;21543;-27
2021/10/11 12:04:05;;;;;;;139.98;108.55;;;22.20;52.10;;;;;;4754174;55;21511;-26
2021/10/11 12:09:07;;;;;;;139.02;107.32;;;22.20;52.30;;;;;;4779200;55;21488;-29
2021/10/11 12:14:07;;;;;;;133.73;109.00;;;22.30;52.60;;;;;;4748719;55;21074;-29
2021/10/11 12:19:08;;;;;;;135.90;108.63;;;22.30;52.80;;;;;;4751517;55;21078;-27
2021/10/11 12:24:20;;;;;;;139.93;107.82;;;22.30;53.10;;;;;;4748777;55;21065;-27
2021/10/11 12:29:22;;;;;;;140.40;107.70;;;22.30;53.20;;;;;;4746386;55;21127;-26
2021/10/11 12:34:51;;;;;;;139.02;105.37;;;22.40;53.60;;;;;;4746350;55;21018;-25
2021/10/11 12:39:56;;;;;;;140.00;109.85;;;22.40;53.80;;;;;;4768102;55;21598;-25
2021/10/11 12:45:00;;;;;;;131.45;105.37;;;22.40;53.90;;;;;;4750567;55;22101;-27
2021/10/11 12:50:15;;;;;;;136.35;105.15;;;22.40;54.00;;;;;;4749850;55;21535;-26
2021/10/11 12:55:25;;;;;;;131.00;104.60;;;22.40;54.30;;;;;;4761396;55;21591;-27
2021/10/11 13:00:26;;;;;;;129.38;101.18;;;22.50;54.40;;;;;;4735295;59;21125;-27
2021/10/11 13:05:27;;;;;;;135.00;103.78;;;22.50;54.50;;;;;;4750410;55;21535;-27
2021/10/11 13:10:28;;;;;;;131.63;105.47;;;22.50;54.70;;;;;;4736475;56;20994;-27
2021/10/11 13:15:31;;;;;;;127.05;99.47;;;22.60;54.70;;;;;;4739893;55;21009;-26
2021/10/11 13:20:33;;;;;;;130.43;102.47;;;22.50;55.00;;;;;;4735169;59;21483;-24
2021/10/11 13:25:34;;;;;;;124.75;100.18;;;22.60;55.10;;;;;;4763283;55;21061;-28
2021/10/11 14:26:37;;;;;;;120.37;95.18;;;22.70;56.30;;;;;;4737240;55;21066;-28
2021/10/11 14:31:49;;;;;;;;;;;22.70;56.30;;;;;;4741569;55;22298;-21
2021/10/11 16:04:40;;;;;;;109.63;87.35;;;22.30;55.90;;;;;;4742003;55;21052;-23
2021/10/11 16:09:41;;;;;;;107.35;87.80;;;22.20;55.90;;;;;;4759413;55;21595;-26
2021/10/11 16:14:43;;;;;;;110.20;88.40;;;22.20;55.80;;;;;;4739204;55;21471;-28
2021/10/11 16:19:43;;;;;;;105.22;85.35;;;22.20;55.80;;;;;;4736872;59;21133;-22
2021/10/11 16:24:44;;;;;;;110.40;88.15;;;22.10;55.70;;;;;;4803256;55;21573;-23
2021/10/11 16:29:45;;;;;;;107.63;86.90;;;22.10;55.70;;;;;;4737402;59;21548;-22
2021/10/11 16:34:46;;;;;;;106.47;87.05;;;22.10;55.60;;;;;;4766074;55;21490;-21
2021/10/11 16:39:47;;;;;;;104.70;85.95;;;22.10;55.60;;;;;;4743848;55;21101;-26
2021/10/11 16:44:48;;;;;;;107.87;86.00;;;22.10;55.50;;;;;;4752213;55;20998;-19
2021/10/11 16:49:49;;;;;;;99.50;80.57;;;22.10;55.50;;;;;;4740301;55;21105;-22
2021/10/11 16:54:50;;;;;;;103.85;84.35;;;22.10;55.50;;;;;;4756756;55;21619;-25
2021/10/11 16:59:52;;;;;;;99.70;83.22;;;22.00;55.40;;;;;;4767922;55;21018;-26
2021/10/11 17:04:52;;;;;;;102.78;83.68;;;22.00;55.30;;;;;;4738379;55;21563;-28
2021/10/11 17:09:54;;;;;;;97.80;82.12;;;22.10;55.30;;;;;;4769126;55;21102;-28
2021/10/11 17:14:55;;;;;;;100.50;83.18;;;22.00;55.20;;;;;;4744136;55;21536;-27
2021/10/11 17:19:55;;;;;;;100.20;82.62;;;22.00;55.20;;;;;;4756054;55;21049;-27
2021/10/11 17:24:56;;;;;;;95.57;78.80;;;22.00;55.20;;;;;;4736976;59;21528;-24
2021/10/11 17:29:57;;;;;;;99.35;80.85;;;22.00;55.20;;;;;;4759370;55;21053;-25
2021/10/11 17:34:58;;;;;;;101.78;82.07;;;22.00;55.20;;;;;;4744002;55;21061;-24
2021/10/11 17:39:59;;;;;;;101.03;82.00;;;22.00;55.10;;;;;;4738441;55;21093;-21
2021/10/11 17:45:00;;;;;;;96.75;80.82;;;22.00;55.10;;;;;;4750699;55;21093;-26
2021/10/11 17:50:04;;;;;;;94.28;78.32;;;22.00;55.10;;;;;;4785699;55;21102;-24
2021/10/11 17:55:05;;;;;;;93.32;76.68;;;22.00;55.00;;;;;;4755738;55;21022;-26
2021/10/11 18:00:08;;;;;;;92.43;75.47;;;22.00;55.00;;;;;;4746702;55;21018;-27
2021/10/11 18:05:09;;;;;;;93.22;76.68;;;22.00;55.00;;;;;;4755922;55;21140;-25
2021/10/11 18:10:10;;;;;;;92.55;75.85;;;21.90;54.90;;;;;;4753981;55;21109;-24
2021/10/11 18:15:11;;;;;;;91.35;76.32;;;21.90;54.80;;;;;;4745898;55;21630;-25
2021/10/11 18:20:12;;;;;;;90.22;74.68;;;21.90;54.80;;;;;;4740990;55;21141;-24
2021/10/11 18:25:15;;;;;;;92.62;76.35;;;21.90;54.80;;;;;;4753452;55;21105;-24
2021/10/11 18:30:18;;;;;;;88.18;73.72;;;21.90;54.80;;;;;;4741660;55;21076;-24
2021/10/11 18:35:19;;;;;;;88.72;72.85;;;21.90;54.70;;;;;;4754418;55;21543;-24
2021/10/11 18:40:20;;;;;;;87.05;71.65;;;21.90;54.70;;;;;;4793165;55;21185;-22
2021/10/11 18:45:21;;;;;;;88.30;75.37;;;21.90;54.70;;;;;;4765144;55;21009;-25
2021/10/11 18:50:22;;;;;;;84.00;72.57;;;21.90;54.70;;;;;;4736492;59;21050;-25
2021/10/11 18:55:23;;;;;;;84.82;72.03;;;21.90;54.60;;;;;;4748071;55;21002;-28
2021/10/11 19:00:24;;;;;;;84.90;67.65;;;21.80;54.60;;;;;;4738938;55;21543;-21
2021/10/11 19:05:25;;;;;;;87.03;72.43;;;21.90;54.60;;;;;;4783094;55;21187;-23
2021/10/11 19:10:26;;;;;;;90.28;73.68;;;21.90;54.70;;;;;;4800768;55;21010;-25
2021/10/11 19:15:26;;;;;;;86.03;70.72;;;21.80;54.60;;;;;;4760442;55;21084;-23
2021/10/11 19:20:27;;;;;;;86.87;71.43;;;21.80;54.50;;;;;;4749432;55;21522;-23
2021/10/11 19:25:28;;;;;;;86.12;72.07;;;21.80;54.50;;;;;;4767112;55;21007;-26
2021/10/11 19:30:30;;;;;;;82.55;70.37;;;21.80;54.50;;;;;;4741386;55;21061;-24
2021/10/11 19:35:31;;;;;;;83.50;71.10;;;21.80;54.50;;;;;;4756679;55;21010;-23
2021/10/11 19:40:32;;;;;;;85.30;69.07;;;21.80;54.60;;;;;;4737115;59;21073;-23
2021/10/11 19:45:33;;;;;;;84.50;71.22;;;21.80;54.50;;;;;;4745856;55;21142;-23
2021/10/11 19:50:35;;;;;;;82.88;68.97;;;21.80;54.50;;;;;;4736724;59;21077;-25
2021/10/11 19:55:37;;;;;;;83.37;69.10;;;21.80;54.50;;;;;;4737730;55;21058;-25
2021/10/11 20:00:38;;;;;;;84.25;69.95;;;21.80;54.50;;;;;;4761608;55;21113;-26
2021/10/11 20:05:41;;;;;;;83.25;69.65;;;21.80;54.50;;;;;;4747856;55;21600;-23
2021/10/11 20:10:42;;;;;;;82.78;69.12;;;21.80;54.50;;;;;;4793478;55;21030;-23
2021/10/11 20:15:45;;;;;;;82.72;68.12;;;21.80;54.50;;;;;;4744342;55;21009;-25
2021/10/11 20:20:47;;;;;;;83.25;66.18;;;21.80;54.50;;;;;;4742410;55;21057;-24
2021/10/11 20:25:48;;;;;;;81.90;67.70;;;21.80;55.10;;;;;;4738505;55;21001;-23
2021/10/11 20:30:49;;;;;;;80.85;66.82;;;21.80;54.50;;;;;;4737966;59;21456;-24
2021/10/11 20:35:50;;;;;;;82.78;67.82;;;21.80;54.40;;;;;;4775158;55;21476;-22
2021/10/11 20:40:51;;;;;;;80.40;66.12;;;21.80;54.40;;;;;;4737523;55;21037;-26
2021/10/11 20:45:53;;;;;;;79.00;65.10;;;21.80;54.40;;;;;;4739549;55;21105;-26
2021/10/11 20:50:54;;;;;;;75.28;63.92;;;21.80;54.40;;;;;;4775362;55;21050;-23
2021/10/11 20:55:55;;;;;;;78.15;63.85;;;21.80;54.50;;;;;;4759240;55;22097;-28
2021/10/11 21:00:57;;;;;;;75.93;63.85;;;21.80;54.40;;;;;;4753292;55;21010;-22
2021/10/11 21:05:58;;;;;;;75.97;63.33;;;21.80;54.40;;;;;;4738669;55;21543;-26
2021/10/11 21:10:59;;;;;;;71.85;61.63;;;21.80;54.40;;;;;;4748738;55;21025;-26
2021/10/11 21:16:00;;;;;;;79.93;65.43;;;21.80;54.40;;;;;;4737334;59;20998;-25
2021/10/11 21:21:00;;;;;;;73.35;62.15;;;21.80;54.40;;;;;;4740930;55;21026;-23
2021/10/11 21:26:02;;;;;;;72.65;60.78;;;21.80;54.40;;;;;;4742771;55;21955;-23
2021/10/11 21:31:04;;;;;;;74.78;61.65;;;21.80;54.30;;;;;;4739204;55;21554;-24
2021/10/11 21:36:11;;;;;;;71.53;60.22;;;21.80;54.30;;;;;;4738040;59;21504;-22
2021/10/11 21:41:12;;;;;;;70.80;59.90;;;21.80;54.30;;;;;;4750607;55;21986;-23
2021/10/11 21:46:13;;;;;;;66.72;56.92;;;21.80;54.30;;;;;;4737338;59;21041;-21
2021/10/11 21:51:14;;;;;;;72.05;60.42;;;21.80;54.30;;;;;;4754978;55;21038;-22
2021/10/11 21:56:15;;;;;;;68.10;58.33;;;21.80;54.30;;;;;;4770328;55;22129;-23
2021/10/11 22:01:16;;;;;;;69.10;57.38;;;21.80;54.30;;;;;;4744345;55;21214;-22
2021/10/11 22:06:17;;;;;;;67.85;57.88;;;21.80;54.20;;;;;;4738286;56;21013;-27
2021/10/11 22:11:19;;;;;;;69.30;57.72;;;21.80;54.30;;;;;;4737322;59;21077;-25
2021/10/11 22:16:20;;;;;;;68.85;57.83;;;21.80;54.20;;;;;;4741498;55;21054;-24
2021/10/11 22:21:21;;;;;;;66.15;55.85;;;21.80;54.20;;;;;;4756669;55;21824;-23
2021/10/11 22:26:23;;;;;;;65.35;56.15;;;21.80;54.30;;;;;;4737935;59;21124;-25
2021/10/11 22:31:24;;;;;;;63.95;52.72;;;21.80;54.20;;;;;;4768589;55;21054;-23
2021/10/11 22:36:25;;;;;;;61.63;52.62;;;21.80;54.20;;;;;;4739412;55;21073;-22
2021/10/11 22:41:26;;;;;;;62.55;53.20;;;21.80;54.20;;;;;;4748497;55;21026;-23
2021/10/11 22:46:27;;;;;;;63.03;52.83;;;21.80;54.20;;;;;;4737241;59;21026;-26
2021/10/11 22:51:32;;;;;;;63.72;54.20;;;21.80;54.10;;;;;;4768078;55;21014;-25
2021/10/11 22:56:33;;;;;;;61.60;52.92;;;21.80;54.20;;;;;;4748155;55;21073;-24
2021/10/11 23:01:34;;;;;;;58.42;49.83;;;21.80;54.10;;;;;;4735438;59;21528;-22
2021/10/11 23:06:34;;;;;;;61.42;52.03;;;21.80;54.10;;;;;;4742169;55;21026;-25
2021/10/11 23:11:35;;;;;;;57.72;50.85;;;21.80;54.10;;;;;;4743342;55;21468;-26
2021/10/11 23:16:36;;;;;;;57.30;49.65;;;21.80;54.10;;;;;;4741391;55;21070;-25
2021/10/11 23:21:38;;;;;;;58.17;50.35;;;21.80;54.10;;;;;;4790698;55;21508;-25
2021/10/11 23:26:39;;;;;;;56.80;48.97;;;21.80;54.00;;;;;;4738212;59;21560;-26
2021/10/11 23:31:40;;;;;;;54.15;46.72;;;21.80;54.10;;;;;;4743476;55;21152;-24
2021/10/11 23:36:41;;;;;;;55.38;48.60;;;21.80;54.10;;;;;;4743289;55;20993;-25
2021/10/11 23:41:42;;;;;;;53.28;46.22;;;21.80;54.00;;;;;;4741269;55;21508;-26
2021/10/11 23:46:43;;;;;;;54.70;47.42;;;21.80;54.10;;;;;;4737639;56;21516;-22
2021/10/11 23:51:44;;;;;;;55.60;46.53;;;21.80;54.00;;;;;;4759295;55;21070;-22
2021/10/11 23:56:45;;;;;;;53.85;45.60;;;21.80;54.00;;;;;;4750334;55;21013;-25
